Time;durP1;ratioP1;P1;durP2;ratioP2;P2;SDS_P1;SDS_P2;PMS_P1;PMS_P2;Temp;Humidity;BMP_temperature;BMP_pressure;BME280_temperature;BME280_humidity;BME280_pressure;Samples;Min_cycle;Max_cycle;Signal;HPM_P1;HPM_P2
2024/02/26 00:00:22;;;;;;;;;8.25;8.00;;;;;;;;5098842;27;45290;-69
2024/02/26 00:02:48;;;;;;;;;8.00;5.75;;;;;;;;5079571;27;45492;-69
2024/02/26 00:05:13;;;;;;;;;10.00;6.33;;;;;;;;5079632;27;45562;-69
2024/02/26 00:07:39;;;;;;;;;4.00;4.00;;;;;;;;5079203;27;45531;-69
2024/02/26 00:10:04;;;;;;;;;3.75;3.75;;;;;;;;5093333;27;46291;-69
2024/02/26 00:12:29;;;;;;;;;8.50;7.50;;;;;;;;5082063;27;45476;-69
2024/02/26 00:14:57;;;;;;;;;5.75;5.00;;;;;;;;5079718;27;45380;-70
2024/02/26 00:17:22;;;;;;;;;7.25;5.25;;;;;;;;5079701;27;45489;-70
2024/02/26 00:19:48;;;;;;;;;8.00;5.00;;;;;;;;5079664;27;45649;-70
2024/02/26 00:22:13;;;;;;;;;5.00;5.00;;;;;;;;5079391;27;45354;-70
2024/02/26 00:24:39;;;;;;;;;5.00;5.00;;;;;;;;5079621;27;46513;-70
2024/02/26 00:27:04;;;;;;;;;5.00;5.00;;;;;;;;5073518;27;45782;-70
2024/02/26 00:29:30;;;;;;;;;5.33;4.33;;;;;;;;5079472;27;45577;-70
2024/02/26 00:31:55;;;;;;;;;6.00;5.00;;;;;;;;5079355;27;45451;-70
2024/02/26 00:34:20;;;;;;;;;5.50;4.00;;;;;;;;5079407;28;45315;-70
2024/02/26 00:36:45;;;;;;;;;6.00;4.67;;;;;;;;5078541;27;45442;-70
2024/02/26 00:39:11;;;;;;;;;4.33;4.33;;;;;;;;5081166;27;45276;-70
2024/02/26 00:41:42;;;;;;;;;3.25;3.25;;;;;;;;5076810;27;45556;-70
2024/02/26 00:44:07;;;;;;;;;5.00;4.00;;;;;;;;5078212;27;45322;-69
2024/02/26 00:46:32;;;;;;;;;4.00;4.00;;;;;;;;5076819;28;45239;-69
2024/02/26 00:48:57;;;;;;;;;5.33;4.33;;;;;;;;5078640;28;45493;-69
2024/02/26 00:51:23;;;;;;;;;3.00;3.00;;;;;;;;5076809;27;45393;-69
2024/02/26 00:53:48;;;;;;;;;3.75;3.00;;;;;;;;5078267;27;46254;-69
2024/02/26 00:56:13;;;;;;;;;5.00;3.00;;;;;;;;5076748;27;45535;-70
2024/02/26 00:58:38;;;;;;;;;6.33;2.33;;;;;;;;5077350;27;45440;-70
2024/02/26 01:01:04;;;;;;;;;3.75;2.00;;;;;;;;5073116;27;45348;-70
2024/02/26 01:03:29;;;;;;;;;2.50;2.50;;;;;;;;5068953;27;45436;-70
2024/02/26 01:05:54;;;;;;;;;2.00;2.00;;;;;;;;5076753;27;45366;-70
2024/02/26 01:08:19;;;;;;;;;3.33;3.33;;;;;;;;5085589;27;45685;-70
2024/02/26 01:10:45;;;;;;;;;4.67;3.67;;;;;;;;5079821;27;45313;-70
2024/02/26 01:13:10;;;;;;;;;3.50;3.50;;;;;;;;5078078;27;46889;-70
2024/02/26 01:15:35;;;;;;;;;4.25;3.00;;;;;;;;5078095;27;45358;-70
2024/02/26 01:18:00;;;;;;;;;1.33;1.33;;;;;;;;5079181;27;45347;-70
2024/02/26 01:20:26;;;;;;;;;2.00;2.00;;;;;;;;5078109;27;45542;-70
2024/02/26 01:22:51;;;;;;;;;2.00;2.00;;;;;;;;5077631;27;47183;-69
2024/02/26 01:25:16;;;;;;;;;2.67;2.67;;;;;;;;5078757;27;45658;-69
2024/02/26 01:27:43;;;;;;;;;1.67;1.00;;;;;;;;5077275;28;45324;-69
2024/02/26 01:30:09;;;;;;;;;2.25;2.25;;;;;;;;5075698;27;45494;-69
2024/02/26 01:32:35;;;;;;;;;2.00;2.00;;;;;;;;5086238;27;45438;-69
2024/02/26 01:35:01;;;;;;;;;2.75;1.00;;;;;;;;5080954;27;45405;-70
2024/02/26 01:37:26;;;;;;;;;2.25;2.00;;;;;;;;5079215;27;45432;-70
2024/02/26 01:39:52;;;;;;;;;3.00;1.00;;;;;;;;5081111;27;45315;-70
2024/02/26 01:42:17;;;;;;;;;1.67;1.00;;;;;;;;5078474;27;46272;-70
2024/02/26 01:44:42;;;;;;;;;2.67;1.00;;;;;;;;5078506;27;45453;-70
2024/02/26 01:47:10;;;;;;;;;2.25;1.00;;;;;;;;5075847;27;46148;-70
2024/02/26 01:49:36;;;;;;;;;3.00;1.25;;;;;;;;5077744;27;45484;-70
2024/02/26 01:52:02;;;;;;;;;5.00;1.50;;;;;;;;5078169;28;46576;-70
2024/02/26 01:54:27;;;;;;;;;2.00;2.00;;;;;;;;5078381;27;45717;-70
2024/02/26 01:56:53;;;;;;;;;2.00;2.00;;;;;;;;5078274;27;45430;-70
2024/02/26 01:59:18;;;;;;;;;4.50;2.00;;;;;;;;5078487;27;45420;-70
2024/02/26 02:01:45;;;;;;;;;2.00;0.75;;;;;;;;5081732;27;45629;-70
2024/02/26 02:04:11;;;;;;;;;2.00;1.00;;;;;;;;5081766;27;45654;-69
2024/02/26 02:06:37;;;;;;;;;4.00;2.00;;;;;;;;5081839;27;45313;-70
2024/02/26 02:09:06;;;;;;;;;2.00;2.00;;;;;;;;5081611;27;46720;-70
2024/02/26 02:11:32;;;;;;;;;2.75;2.00;;;;;;;;5081183;27;46355;-70
2024/02/26 02:13:57;;;;;;;;;1.00;1.00;;;;;;;;5079969;27;45510;-70
2024/02/26 02:16:24;;;;;;;;;1.50;1.50;;;;;;;;5077471;27;45622;-70
2024/02/26 02:18:49;;;;;;;;;1.00;1.00;;;;;;;;5081048;27;45425;-69
2024/02/26 02:21:14;;;;;;;;;0.67;0.67;;;;;;;;5081473;27;45408;-70
2024/02/26 02:23:40;;;;;;;;;1.00;1.00;;;;;;;;5081402;27;45498;-70
2024/02/26 02:26:05;;;;;;;;;3.00;0.50;;;;;;;;5079272;27;45396;-70
2024/02/26 02:28:30;;;;;;;;;3.00;2.00;;;;;;;;5077661;27;45534;-70
2024/02/26 02:30:56;;;;;;;;;3.00;1.00;;;;;;;;5078193;27;45590;-70
2024/02/26 02:33:22;;;;;;;;;2.50;1.00;;;;;;;;5079911;27;45282;-69
2024/02/26 02:35:47;;;;;;;;;3.00;2.00;;;;;;;;5080887;27;45431;-70
2024/02/26 02:38:12;;;;;;;;;1.00;1.00;;;;;;;;5074519;27;45465;-70
2024/02/26 02:40:38;;;;;;;;;1.00;1.00;;;;;;;;5081292;27;45485;-70
2024/02/26 02:43:04;;;;;;;;;3.00;1.33;;;;;;;;5081349;27;45298;-70
2024/02/26 02:45:29;;;;;;;;;1.00;1.00;;;;;;;;5092350;27;45536;-70
2024/02/26 02:47:54;;;;;;;;;4.25;1.00;;;;;;;;5081011;27;45471;-70
2024/02/26 02:50:20;;;;;;;;;2.00;1.00;;;;;;;;5080932;27;45322;-70
2024/02/26 02:52:45;;;;;;;;;2.25;1.00;;;;;;;;5081010;27;45401;-70
2024/02/26 02:55:10;;;;;;;;;1.00;1.00;;;;;;;;5079877;28;45599;-70
2024/02/26 02:57:40;;;;;;;;;4.25;1.25;;;;;;;;5080705;27;45448;-70
2024/02/26 03:00:07;;;;;;;;;3.00;2.00;;;;;;;;5080944;27;45463;-70
2024/02/26 03:02:32;;;;;;;;;2.50;2.00;;;;;;;;5082359;27;45268;-70
2024/02/26 03:04:57;;;;;;;;;3.00;1.00;;;;;;;;5090329;27;45255;-70
2024/02/26 03:07:22;;;;;;;;;3.33;1.00;;;;;;;;5079341;27;45389;-70
2024/02/26 03:09:47;;;;;;;;;2.67;1.00;;;;;;;;5098510;27;46399;-70
2024/02/26 03:12:13;;;;;;;;;2.67;0.00;;;;;;;;5091338;27;45419;-70
2024/02/26 03:14:38;;;;;;;;;3.25;1.50;;;;;;;;5080825;28;45356;-70
2024/02/26 03:17:03;;;;;;;;;1.33;1.00;;;;;;;;5080822;27;45370;-70
2024/02/26 03:19:28;;;;;;;;;2.00;2.00;;;;;;;;5080279;27;45436;-70
2024/02/26 03:21:53;;;;;;;;;1.67;1.67;;;;;;;;5080556;27;45322;-70
2024/02/26 03:24:19;;;;;;;;;3.67;1.00;;;;;;;;5080721;27;45346;-70
2024/02/26 03:26:44;;;;;;;;;2.00;1.00;;;;;;;;5074672;27;45588;-70
2024/02/26 03:29:09;;;;;;;;;3.00;1.00;;;;;;;;5079794;27;45265;-70
2024/02/26 03:31:34;;;;;;;;;4.00;1.00;;;;;;;;5080327;27;45285;-70
2024/02/26 03:33:59;;;;;;;;;2.33;1.00;;;;;;;;5080495;27;45251;-70
2024/02/26 03:36:25;;;;;;;;;3.00;1.00;;;;;;;;5079501;27;45462;-70
2024/02/26 03:38:50;;;;;;;;;1.75;0.75;;;;;;;;5084242;27;46492;-70
2024/02/26 03:41:15;;;;;;;;;3.67;2.00;;;;;;;;5078875;28;45590;-70
2024/02/26 03:43:40;;;;;;;;;1.50;1.25;;;;;;;;5067647;28;45477;-70
2024/02/26 03:46:11;;;;;;;;;0.00;0.00;;;;;;;;5078942;28;45247;-70
2024/02/26 03:48:36;;;;;;;;;2.00;1.00;;;;;;;;5069225;27;46167;-70
2024/02/26 03:51:01;;;;;;;;;2.00;1.25;;;;;;;;5079952;27;45443;-70
2024/02/26 03:53:27;;;;;;;;;3.00;1.00;;;;;;;;5078190;27;45313;-70
2024/02/26 03:55:53;;;;;;;;;1.25;1.00;;;;;;;;5077457;27;45553;-70
2024/02/26 03:58:18;;;;;;;;;3.00;2.00;;;;;;;;5078876;28;46736;-70
2024/02/26 04:00:44;;;;;;;;;2.33;2.00;;;;;;;;5078495;27;45243;-70
2024/02/26 04:03:09;;;;;;;;;0.25;0.25;;;;;;;;5079087;27;45287;-70
2024/02/26 04:05:34;;;;;;;;;1.33;1.00;;;;;;;;5077978;27;45641;-70
2024/02/26 04:07:59;;;;;;;;;3.00;2.33;;;;;;;;5084359;27;46192;-70
2024/02/26 04:10:25;;;;;;;;;2.00;0.00;;;;;;;;5081570;27;45532;-70
2024/02/26 04:12:50;;;;;;;;;1.75;1.00;;;;;;;;5079769;27;45381;-70
2024/02/26 04:15:15;;;;;;;;;3.00;1.00;;;;;;;;5078101;27;45476;-70
2024/02/26 04:17:40;;;;;;;;;4.33;1.00;;;;;;;;5077852;27;45442;-70
2024/02/26 04:20:06;;;;;;;;;1.00;1.00;;;;;;;;5067499;27;45314;-70
2024/02/26 04:22:32;;;;;;;;;1.75;1.00;;;;;;;;5079459;28;45482;-70
2024/02/26 04:24:57;;;;;;;;;4.00;0.75;;;;;;;;5079671;27;45473;-70
2024/02/26 04:27:22;;;;;;;;;3.50;2.00;;;;;;;;5073281;28;45421;-70
2024/02/26 04:29:47;;;;;;;;;1.00;1.00;;;;;;;;5078936;27;45471;-70
2024/02/26 04:32:12;;;;;;;;;2.00;1.00;;;;;;;;5077179;27;45432;-70
2024/02/26 04:34:38;;;;;;;;;3.00;2.00;;;;;;;;5081054;27;45447;-70
2024/02/26 04:37:03;;;;;;;;;1.00;1.00;;;;;;;;5088341;27;45533;-70
2024/02/26 04:39:28;;;;;;;;;3.50;1.75;;;;;;;;5079429;27;45382;-70
2024/02/26 04:41:53;;;;;;;;;0.33;0.33;;;;;;;;5079448;27;45568;-70
2024/02/26 04:44:19;;;;;;;;;1.00;1.00;;;;;;;;5079304;27;45369;-70
2024/02/26 04:46:44;;;;;;;;;1.00;1.00;;;;;;;;5079024;27;46016;-70
2024/02/26 04:49:09;;;;;;;;;2.00;0.00;;;;;;;;5079338;27;45355;-70
2024/02/26 04:51:34;;;;;;;;;4.00;2.25;;;;;;;;5079163;27;45366;-70
2024/02/26 04:54:00;;;;;;;;;1.33;0.33;;;;;;;;5079312;27;45466;-70
2024/02/26 04:56:25;;;;;;;;;1.00;1.00;;;;;;;;5078668;27;45404;-70
2024/02/26 04:58:50;;;;;;;;;2.00;1.00;;;;;;;;5079159;27;45458;-70
2024/02/26 05:01:16;;;;;;;;;2.00;1.00;;;;;;;;5080352;27;45600;-70
2024/02/26 05:03:42;;;;;;;;;1.00;1.00;;;;;;;;5084583;27;45446;-70
2024/02/26 05:06:08;;;;;;;;;1.75;1.50;;;;;;;;5078668;27;45369;-70
2024/02/26 05:08:35;;;;;;;;;0.00;0.00;;;;;;;;5078968;28;45303;-70
2024/02/26 05:11:02;;;;;;;;;1.75;1.00;;;;;;;;5078908;27;45447;-70
2024/02/26 05:13:27;;;;;;;;;2.00;0.75;;;;;;;;5078539;28;45424;-70
2024/02/26 05:15:52;;;;;;;;;4.67;0.33;;;;;;;;5078723;27;45474;-70
2024/02/26 05:18:18;;;;;;;;;0.50;0.50;;;;;;;;5079061;28;45401;-70
2024/02/26 05:20:43;;;;;;;;;3.50;1.50;;;;;;;;5067283;27;45366;-70
2024/02/26 05:23:09;;;;;;;;;2.00;1.00;;;;;;;;5079074;27;45420;-70
2024/02/26 05:25:34;;;;;;;;;4.00;2.00;;;;;;;;5078718;27;45778;-70
2024/02/26 05:27:59;;;;;;;;;1.00;1.00;;;;;;;;5072677;27;45382;-70
2024/02/26 05:30:26;;;;;;;;;1.00;1.00;;;;;;;;5076496;27;45492;-70
2024/02/26 05:32:52;;;;;;;;;6.25;1.00;;;;;;;;5089562;27;45532;-70
2024/02/26 05:35:17;;;;;;;;;4.00;1.00;;;;;;;;5079897;27;46207;-70
2024/02/26 05:37:42;;;;;;;;;3.33;1.33;;;;;;;;5080886;27;45421;-70
2024/02/26 05:40:07;;;;;;;;;1.33;1.33;;;;;;;;5082309;27;45449;-71
2024/02/26 05:42:33;;;;;;;;;3.75;2.00;;;;;;;;5082149;27;45472;-70
2024/02/26 05:44:58;;;;;;;;;2.75;2.25;;;;;;;;5081945;27;46107;-70
2024/02/26 05:47:23;;;;;;;;;3.25;2.00;;;;;;;;5080900;27;45330;-70
2024/02/26 05:49:49;;;;;;;;;3.67;1.00;;;;;;;;5081803;27;45404;-70
2024/02/26 05:52:14;;;;;;;;;2.00;1.00;;;;;;;;5082140;27;45286;-70
2024/02/26 05:54:39;;;;;;;;;1.00;1.00;;;;;;;;5081740;27;46453;-70
2024/02/26 05:57:05;;;;;;;;;4.67;2.00;;;;;;;;5080384;28;45582;-70
2024/02/26 05:59:30;;;;;;;;;1.33;1.33;;;;;;;;5080567;27;45638;-70
2024/02/26 06:01:55;;;;;;;;;2.00;1.00;;;;;;;;5080405;27;45589;-70
2024/02/26 06:04:20;;;;;;;;;1.00;1.00;;;;;;;;5080212;27;47202;-70
2024/02/26 06:06:45;;;;;;;;;1.25;1.25;;;;;;;;5081605;27;45353;-70
2024/02/26 06:09:11;;;;;;;;;2.33;1.67;;;;;;;;5081201;27;45554;-70
2024/02/26 06:11:36;;;;;;;;;2.50;1.50;;;;;;;;5081283;27;45543;-70
2024/02/26 06:14:01;;;;;;;;;10.25;2.75;;;;;;;;5080382;27;45548;-70
2024/02/26 06:16:27;;;;;;;;;4.75;2.75;;;;;;;;5081792;27;45498;-70
2024/02/26 06:18:52;;;;;;;;;3.50;3.00;;;;;;;;5079684;27;45378;-70
2024/02/26 06:21:17;;;;;;;;;5.00;3.00;;;;;;;;5072008;28;45628;-70
2024/02/26 06:23:43;;;;;;;;;4.00;2.33;;;;;;;;5081263;27;46495;-70
2024/02/26 06:26:08;;;;;;;;;3.75;3.00;;;;;;;;5078702;27;45427;-70
2024/02/26 06:28:35;;;;;;;;;3.00;3.00;;;;;;;;5077277;27;45469;-70
2024/02/26 06:31:00;;;;;;;;;3.25;2.00;;;;;;;;5082906;27;45615;-70
2024/02/26 06:33:25;;;;;;;;;3.00;2.33;;;;;;;;5083963;27;46233;-69
2024/02/26 06:35:51;;;;;;;;;4.00;2.67;;;;;;;;5080947;27;45486;-70
2024/02/26 06:38:17;;;;;;;;;5.33;2.00;;;;;;;;5079786;27;45670;-69
2024/02/26 06:40:42;;;;;;;;;2.50;2.00;;;;;;;;5081326;27;45322;-70
2024/02/26 06:43:07;;;;;;;;;3.00;1.00;;;;;;;;5080969;27;46175;-70
2024/02/26 06:45:32;;;;;;;;;1.67;1.67;;;;;;;;5081228;27;45444;-69
2024/02/26 06:47:58;;;;;;;;;3.00;2.00;;;;;;;;5081242;27;45635;-69
2024/02/26 06:50:23;;;;;;;;;1.33;1.00;;;;;;;;5079647;27;45413;-70
2024/02/26 06:52:48;;;;;;;;;3.00;3.00;;;;;;;;5080787;27;45338;-70
2024/02/26 06:55:13;;;;;;;;;4.00;3.00;;;;;;;;5081064;27;45423;-70
2024/02/26 06:57:39;;;;;;;;;2.00;2.00;;;;;;;;5080496;27;46543;-70
2024/02/26 07:00:04;;;;;;;;;3.00;3.00;;;;;;;;5079271;28;45496;-69
2024/02/26 07:02:29;;;;;;;;;3.25;3.00;;;;;;;;5090517;27;45516;-69
2024/02/26 07:04:56;;;;;;;;;2.00;2.00;;;;;;;;5075299;27;45584;-70
2024/02/26 07:07:22;;;;;;;;;2.00;2.00;;;;;;;;5078959;27;45319;-70
2024/02/26 07:09:48;;;;;;;;;3.50;3.00;;;;;;;;5077002;27;45698;-70
2024/02/26 07:12:13;;;;;;;;;4.75;3.00;;;;;;;;5078437;27;45769;-69
2024/02/26 07:14:39;;;;;;;;;5.00;2.00;;;;;;;;5079723;27;45518;-69
2024/02/26 07:17:04;;;;;;;;;2.00;2.00;;;;;;;;5077682;27;45370;-64
2024/02/26 07:19:29;;;;;;;;;1.00;1.00;;;;;;;;5073769;27;46658;-65
2024/02/26 07:21:55;;;;;;;;;3.67;3.00;;;;;;;;5085560;27;45478;-64
2024/02/26 07:24:20;;;;;;;;;4.50;2.75;;;;;;;;5084626;27;45604;-64
2024/02/26 07:26:45;;;;;;;;;4.67;2.00;;;;;;;;5085696;27;45626;-64
2024/02/26 07:29:11;;;;;;;;;2.33;2.33;;;;;;;;5081853;27;45575;-64
2024/02/26 07:31:36;;;;;;;;;1.00;1.00;;;;;;;;5066390;27;45442;-63
2024/02/26 07:34:01;;;;;;;;;3.00;2.00;;;;;;;;5073329;27;45306;-64
2024/02/26 07:36:26;;;;;;;;;3.67;3.00;;;;;;;;5094962;27;45413;-64
2024/02/26 07:38:54;;;;;;;;;2.00;2.00;;;;;;;;5088548;27;45445;-64
2024/02/26 07:41:19;;;;;;;;;3.00;2.00;;;;;;;;5077598;27;47368;-64
2024/02/26 07:43:44;;;;;;;;;3.75;3.00;;;;;;;;5083272;27;45433;-64
2024/02/26 07:46:11;;;;;;;;;5.00;3.00;;;;;;;;5089517;27;45319;-64
2024/02/26 07:48:36;;;;;;;;;4.50;4.00;;;;;;;;5076222;27;45571;-64
2024/02/26 07:51:03;;;;;;;;;3.00;3.00;;;;;;;;5074292;27;46545;-67
2024/02/26 07:53:28;;;;;;;;;5.00;4.00;;;;;;;;5075144;27;45431;-69
2024/02/26 07:55:53;;;;;;;;;4.33;3.00;;;;;;;;5092708;27;45895;-68
2024/02/26 07:58:18;;;;;;;;;4.00;4.00;;;;;;;;5095722;27;45604;-68
2024/02/26 08:00:45;;;;;;;;;6.00;3.33;;;;;;;;5098177;27;46514;-68
2024/02/26 08:03:11;;;;;;;;;4.25;3.25;;;;;;;;5076421;27;45403;-68
2024/02/26 08:05:39;;;;;;;;;7.75;4.25;;;;;;;;5090392;27;45453;-68
2024/02/26 08:08:05;;;;;;;;;8.00;4.50;;;;;;;;5071725;27;46221;-68
2024/02/26 08:10:30;;;;;;;;;8.75;5.00;;;;;;;;5087346;27;46421;-70
2024/02/26 08:12:58;;;;;;;;;10.00;5.00;;;;;;;;5082386;27;45454;-68
2024/02/26 08:15:23;;;;;;;;;4.00;4.00;;;;;;;;5075489;27;45310;-69
2024/02/26 08:17:48;;;;;;;;;5.00;4.00;;;;;;;;5077273;27;45465;-70
2024/02/26 08:20:13;;;;;;;;;5.33;4.00;;;;;;;;5076191;27;48265;-69
2024/02/26 08:22:39;;;;;;;;;5.00;3.50;;;;;;;;5076456;28;45778;-69
2024/02/26 08:25:06;;;;;;;;;3.00;3.00;;;;;;;;5080366;27;45491;-69
2024/02/26 08:27:32;;;;;;;;;3.50;3.00;;;;;;;;5074842;27;45709;-69
2024/02/26 08:29:57;;;;;;;;;3.33;3.33;;;;;;;;5086420;27;45527;-70
2024/02/26 08:32:22;;;;;;;;;4.67;4.00;;;;;;;;5076304;27;45302;-69
2024/02/26 08:34:47;;;;;;;;;4.00;2.00;;;;;;;;5078197;27;45591;-69
2024/02/26 08:37:12;;;;;;;;;5.00;3.33;;;;;;;;5077725;27;45438;-70
2024/02/26 08:39:39;;;;;;;;;5.67;4.00;;;;;;;;5077961;27;45603;-69
2024/02/26 08:42:04;;;;;;;;;6.25;5.50;;;;;;;;5075952;28;45559;-68
2024/02/26 08:44:30;;;;;;;;;5.00;5.00;;;;;;;;5079812;27;45506;-70
2024/02/26 08:46:55;;;;;;;;;5.50;5.00;;;;;;;;5077431;28;45632;-72
2024/02/26 08:49:23;;;;;;;;;5.00;5.00;;;;;;;;5076161;27;48001;-68
2024/02/26 08:51:48;;;;;;;;;3.25;2.75;;;;;;;;5077271;27;45413;-68
2024/02/26 08:54:13;;;;;;;;;5.00;4.00;;;;;;;;5074206;27;45481;-68
2024/02/26 08:56:38;;;;;;;;;6.33;4.00;;;;;;;;5072478;28;45424;-68
2024/02/26 08:59:03;;;;;;;;;3.00;3.00;;;;;;;;5076181;27;47390;-68
2024/02/26 09:01:32;;;;;;;;;6.67;3.00;;;;;;;;5071063;27;45542;-68
2024/02/26 09:03:57;;;;;;;;;5.00;3.25;;;;;;;;5077866;27;45571;-68
2024/02/26 09:06:23;;;;;;;;;5.00;3.67;;;;;;;;5077244;27;45628;-68
2024/02/26 09:08:48;;;;;;;;;3.00;2.00;;;;;;;;5077364;28;45355;-68
2024/02/26 09:11:13;;;;;;;;;5.00;4.67;;;;;;;;5078990;27;45330;-68
2024/02/26 09:13:38;;;;;;;;;2.50;2.00;;;;;;;;5079678;27;45409;-68
2024/02/26 09:16:04;;;;;;;;;4.25;3.00;;;;;;;;5081372;27;45600;-68
2024/02/26 09:18:29;;;;;;;;;4.00;4.00;;;;;;;;5081109;27;46386;-70
2024/02/26 09:20:55;;;;;;;;;8.00;3.67;;;;;;;;5080387;27;45325;-67
2024/02/26 09:23:20;;;;;;;;;3.75;3.00;;;;;;;;5075054;27;45336;-74
2024/02/26 09:25:45;;;;;;;;;4.00;4.00;;;;;;;;5079498;27;45611;-68
2024/02/26 09:28:11;;;;;;;;;2.75;2.75;;;;;;;;5080325;27;46085;-70
2024/02/26 09:30:36;;;;;;;;;6.00;3.67;;;;;;;;5080913;27;45274;-69
2024/02/26 09:33:01;;;;;;;;;3.00;3.00;;;;;;;;5079746;27;45404;-69
2024/02/26 09:35:26;;;;;;;;;4.00;3.00;;;;;;;;5075595;27;45452;-69
2024/02/26 09:37:52;;;;;;;;;2.25;1.00;;;;;;;;5064064;27;48092;-68
2024/02/26 09:40:17;;;;;;;;;2.50;2.50;;;;;;;;5080231;27;45420;-69
2024/02/26 09:42:43;;;;;;;;;4.67;3.33;;;;;;;;5078895;27;45465;-68
2024/02/26 09:45:09;;;;;;;;;3.00;3.00;;;;;;;;5080568;27;45764;-68
2024/02/26 09:47:36;;;;;;;;;4.75;3.00;;;;;;;;5093992;27;45729;-68
2024/02/26 09:50:02;;;;;;;;;4.00;3.00;;;;;;;;5072117;28;45397;-68
2024/02/26 09:52:28;;;;;;;;;4.75;3.00;;;;;;;;5071569;27;45378;-68
2024/02/26 09:54:53;;;;;;;;;5.00;4.00;;;;;;;;5080676;27;45570;-68
2024/02/26 09:57:19;;;;;;;;;3.00;3.00;;;;;;;;5075259;27;45369;-68
2024/02/26 09:59:46;;;;;;;;;4.00;2.00;;;;;;;;5082711;27;45397;-68
2024/02/26 10:02:12;;;;;;;;;4.50;3.00;;;;;;;;5080633;27;45815;-68
2024/02/26 10:04:39;;;;;;;;;3.50;3.00;;;;;;;;5079141;27;45472;-67
2024/02/26 10:07:05;;;;;;;;;7.00;4.25;;;;;;;;5079519;27;46405;-66
2024/02/26 10:09:31;;;;;;;;;2.50;2.50;;;;;;;;5080468;27;45484;-64
2024/02/26 10:11:57;;;;;;;;;4.25;3.00;;;;;;;;5083983;27;45666;-65
2024/02/26 10:14:22;;;;;;;;;3.00;3.00;;;;;;;;5078385;27;45397;-65
2024/02/26 10:16:48;;;;;;;;;2.75;2.50;;;;;;;;5078947;27;46299;-66
2024/02/26 10:19:24;;;;;;;;;3.25;3.00;;;;;;;;5077432;27;45681;-67
2024/02/26 10:21:52;;;;;;;;;4.00;2.00;;;;;;;;5079890;27;45477;-67
2024/02/26 10:24:18;;;;;;;;;3.25;3.25;;;;;;;;5078046;27;45522;-67
2024/02/26 10:26:46;;;;;;;;;3.00;3.00;;;;;;;;5074354;28;45449;-67
2024/02/26 10:29:11;;;;;;;;;2.50;2.50;;;;;;;;5078026;27;45688;-67
2024/02/26 10:31:36;;;;;;;;;2.00;2.00;;;;;;;;5077391;28;45739;-67
2024/02/26 10:34:02;;;;;;;;;2.00;2.00;;;;;;;;5079328;27;45425;-67
2024/02/26 10:36:27;;;;;;;;;3.25;3.00;;;;;;;;5079622;27;45792;-67
2024/02/26 10:38:54;;;;;;;;;4.00;3.00;;;;;;;;5077072;27;45350;-67
2024/02/26 10:41:19;;;;;;;;;5.50;3.00;;;;;;;;5075612;27;45444;-67
2024/02/26 10:43:44;;;;;;;;;6.67;4.00;;;;;;;;5079573;27;45505;-67
2024/02/26 10:46:10;;;;;;;;;2.33;1.67;;;;;;;;5078156;27;45544;-67
2024/02/26 10:48:35;;;;;;;;;1.00;1.00;;;;;;;;5079872;27;45256;-67
2024/02/26 10:51:00;;;;;;;;;1.00;1.00;;;;;;;;5078469;28;45622;-67
2024/02/26 10:53:28;;;;;;;;;4.75;2.00;;;;;;;;5077313;27;45529;-67
2024/02/26 10:56:04;;;;;;;;;3.75;2.50;;;;;;;;5077911;28;45898;-67
2024/02/26 10:58:31;;;;;;;;;0.00;0.00;;;;;;;;5076862;28;45403;-67
2024/02/26 11:00:56;;;;;;;;;3.50;1.75;;;;;;;;5079156;27;45381;-67
2024/02/26 11:03:22;;;;;;;;;1.50;1.50;;;;;;;;5077603;27;45803;-67
2024/02/26 11:05:50;;;;;;;;;2.00;2.00;;;;;;;;5081858;27;45440;-67
2024/02/26 11:08:20;;;;;;;;;1.75;1.50;;;;;;;;5074225;27;45747;-67
2024/02/26 11:10:48;;;;;;;;;1.00;0.00;;;;;;;;5072395;27;45729;-68
2024/02/26 11:13:14;;;;;;;;;1.00;1.00;;;;;;;;5072543;27;45638;-67
2024/02/26 11:15:39;;;;;;;;;1.00;1.00;;;;;;;;5075163;27;47877;-67
2024/02/26 11:18:05;;;;;;;;;1.33;1.00;;;;;;;;5084063;27;45459;-67
2024/02/26 11:20:32;;;;;;;;;2.00;2.00;;;;;;;;5078178;27;45260;-67
2024/02/26 11:22:57;;;;;;;;;1.00;1.00;;;;;;;;5070757;27;45467;-67
2024/02/26 11:25:23;;;;;;;;;1.00;1.00;;;;;;;;5072170;27;46152;-68
2024/02/26 11:27:50;;;;;;;;;2.00;2.00;;;;;;;;5077792;27;45733;-69
2024/02/26 11:30:17;;;;;;;;;1.75;1.75;;;;;;;;5068535;27;45437;-71
2024/02/26 11:32:46;;;;;;;;;2.00;1.25;;;;;;;;5076965;27;45354;-71
2024/02/26 11:35:15;;;;;;;;;3.00;3.00;;;;;;;;5075339;27;47478;-71
2024/02/26 11:37:40;;;;;;;;;1.00;0.75;;;;;;;;5079479;27;45590;-71
2024/02/26 11:40:09;;;;;;;;;2.25;2.25;;;;;;;;5078702;27;45791;-71
2024/02/26 11:42:42;;;;;;;;;0.25;0.25;;;;;;;;5079163;27;45338;-71
2024/02/26 11:45:28;;;;;;;;;0.00;0.00;;;;;;;;5080951;27;46837;-70
2024/02/26 11:47:56;;;;;;;;;0.25;0.25;;;;;;;;5089195;27;45764;-70
2024/02/26 11:50:37;;;;;;;;;1.00;1.00;;;;;;;;5076404;27;45411;-70
2024/02/26 11:53:21;;;;;;;;;1.00;1.00;;;;;;;;5091249;27;45851;-71
2024/02/26 11:55:46;;;;;;;;;4.00;3.00;;;;;;;;5076352;28;47266;-72
2024/02/26 11:58:11;;;;;;;;;4.00;2.00;;;;;;;;5089022;27;45422;-71
2024/02/26 12:00:36;;;;;;;;;2.25;2.25;;;;;;;;5071670;27;45706;-71
2024/02/26 12:03:05;;;;;;;;;4.00;2.67;;;;;;;;5085303;27;45324;-71
2024/02/26 12:05:31;;;;;;;;;2.25;2.25;;;;;;;;5086642;27;46002;-71
2024/02/26 12:08:00;;;;;;;;;3.00;3.00;;;;;;;;5078402;27;45444;-71
2024/02/26 12:10:36;;;;;;;;;4.50;4.00;;;;;;;;5073814;27;45457;-71
2024/02/26 12:13:07;;;;;;;;;2.00;2.00;;;;;;;;5065724;28;45549;-72
2024/02/26 12:15:33;;;;;;;;;5.50;3.25;;;;;;;;5071228;27;45576;-71
2024/02/26 12:18:00;;;;;;;;;5.25;2.00;;;;;;;;5076403;27;45540;-70
2024/02/26 12:20:25;;;;;;;;;2.75;2.00;;;;;;;;5073249;27;45557;-70
2024/02/26 12:22:53;;;;;;;;;2.00;2.00;;;;;;;;5078499;27;45567;-70
2024/02/26 12:25:19;;;;;;;;;4.00;2.00;;;;;;;;5071396;27;45642;-70
2024/02/26 12:27:44;;;;;;;;;2.00;2.00;;;;;;;;5075159;27;45541;-70
2024/02/26 12:30:10;;;;;;;;;2.67;2.67;;;;;;;;5076120;27;45331;-70
2024/02/26 12:32:36;;;;;;;;;3.25;3.25;;;;;;;;5078076;28;45607;-70
2024/02/26 12:35:01;;;;;;;;;5.50;3.00;;;;;;;;5075749;28;46491;-70
2024/02/26 12:37:27;;;;;;;;;4.00;2.00;;;;;;;;5072926;27;45550;-70
2024/02/26 12:39:52;;;;;;;;;1.00;1.00;;;;;;;;5071457;28;45496;-74
2024/02/26 12:42:18;;;;;;;;;3.00;2.00;;;;;;;;5070499;27;45543;-71
2024/02/26 12:44:45;;;;;;;;;3.00;3.00;;;;;;;;5073946;28;46346;-70
2024/02/26 12:47:12;;;;;;;;;2.75;2.75;;;;;;;;5070052;27;46064;-70
2024/02/26 12:49:37;;;;;;;;;2.00;2.00;;;;;;;;5068577;27;45700;-70
2024/02/26 12:52:02;;;;;;;;;2.00;2.00;;;;;;;;5068991;27;45401;-70
2024/02/26 12:54:28;;;;;;;;;1.50;1.50;;;;;;;;5073722;27;46173;-70
2024/02/26 12:56:54;;;;;;;;;1.00;1.00;;;;;;;;5067026;27;46246;-74
2024/02/26 12:59:19;;;;;;;;;2.50;1.00;;;;;;;;5070355;28;45686;-70
2024/02/26 13:01:45;;;;;;;;;1.75;1.75;;;;;;;;5075070;27;45825;-70
2024/02/26 13:04:10;;;;;;;;;0.50;0.50;;;;;;;;5071488;28;45695;-71
2024/02/26 13:06:35;;;;;;;;;0.00;0.00;;;;;;;;5069230;27;45454;-70
2024/02/26 13:09:01;;;;;;;;;1.00;1.00;;;;;;;;5069443;27;45642;-70
2024/02/26 13:11:28;;;;;;;;;2.00;2.00;;;;;;;;5073387;27;45573;-70
2024/02/26 13:13:54;;;;;;;;;1.00;1.00;;;;;;;;5067642;27;45818;-70
2024/02/26 13:16:19;;;;;;;;;1.00;1.00;;;;;;;;5076921;27;45680;-70
2024/02/26 13:18:44;;;;;;;;;2.00;1.00;;;;;;;;5073691;27;45466;-70
2024/02/26 13:21:10;;;;;;;;;1.00;1.00;;;;;;;;5070647;27;45509;-70
2024/02/26 13:23:36;;;;;;;;;1.75;1.75;;;;;;;;5074434;27;47783;-70
2024/02/26 13:26:02;;;;;;;;;1.00;1.00;;;;;;;;5086270;27;45474;-70
2024/02/26 13:28:28;;;;;;;;;1.00;1.00;;;;;;;;5073186;27;45456;-70
2024/02/26 13:30:57;;;;;;;;;1.00;1.00;;;;;;;;5081310;27;45574;-69
2024/02/26 13:33:23;;;;;;;;;1.00;1.00;;;;;;;;5065306;27;45570;-71
2024/02/26 13:35:48;;;;;;;;;1.00;1.00;;;;;;;;5086631;27;45805;-71
2024/02/26 13:38:14;;;;;;;;;1.00;1.00;;;;;;;;5070291;27;45703;-71
2024/02/26 13:40:39;;;;;;;;;0.75;0.50;;;;;;;;5078062;27;45691;-71
2024/02/26 13:43:04;;;;;;;;;0.75;0.75;;;;;;;;5078822;27;46028;-71
2024/02/26 13:45:29;;;;;;;;;1.00;1.00;;;;;;;;5076783;27;45697;-71
2024/02/26 13:48:00;;;;;;;;;3.00;2.00;;;;;;;;5080929;27;45853;-71
2024/02/26 13:50:26;;;;;;;;;1.00;1.00;;;;;;;;5072378;27;45666;-71
2024/02/26 13:52:53;;;;;;;;;2.33;1.33;;;;;;;;5071530;27;45550;-71
2024/02/26 13:55:19;;;;;;;;;1.00;1.00;;;;;;;;5072392;27;46032;-72
2024/02/26 13:57:44;;;;;;;;;4.00;2.00;;;;;;;;5073980;27;45526;-71
2024/02/26 14:00:10;;;;;;;;;2.00;2.00;;;;;;;;5084544;27;45784;-70
2024/02/26 14:02:36;;;;;;;;;1.25;1.25;;;;;;;;5073374;27;46049;-71
2024/02/26 14:05:03;;;;;;;;;1.25;1.25;;;;;;;;5076744;27;45651;-71
2024/02/26 14:07:28;;;;;;;;;1.25;1.00;;;;;;;;5093201;27;45690;-71
2024/02/26 14:09:53;;;;;;;;;1.67;1.67;;;;;;;;5086918;27;45349;-71
2024/02/26 14:12:19;;;;;;;;;2.00;2.00;;;;;;;;5074905;27;45473;-71
2024/02/26 14:14:45;;;;;;;;;2.33;2.33;;;;;;;;5081852;27;46966;-71
2024/02/26 14:17:11;;;;;;;;;7.50;5.50;;;;;;;;5079790;27;45486;-71
2024/02/26 14:19:39;;;;;;;;;2.00;2.00;;;;;;;;5079961;27;45373;-71
2024/02/26 14:22:04;;;;;;;;;0.50;0.50;;;;;;;;5079412;27;46841;-71
2024/02/26 14:24:29;;;;;;;;;2.33;1.00;;;;;;;;5076465;27;45552;-71
2024/02/26 14:26:54;;;;;;;;;2.67;2.00;;;;;;;;5072488;27;45385;-71
2024/02/26 14:29:20;;;;;;;;;0.00;0.00;;;;;;;;5064430;27;45567;-71
2024/02/26 14:31:45;;;;;;;;;1.00;1.00;;;;;;;;5074496;27;46217;-71
2024/02/26 14:34:10;;;;;;;;;2.00;2.00;;;;;;;;5079318;27;45426;-71